CheckWX is a tool to help pilots better visualize weather data.  It is not intended as a substitute for an official pre-flight weather briefing.

23:09:47 UTC

KHHG METAR
Huntington Municipal Airport
Huntington, Indiana, USA
Current

15 mins ago

KHHG 222255Z AUTO 00000KT 10SM CLR 01/M04 A3013 RMK AO2 T00061042
Observed
Nov-22 @ 22:55 UTC
Visibility
10 SM
Flight Rules
VFR
Cloud Levels
  • Clear skies
Temperature
C / 34°F
Dewpoint
-4°C / 25°F
Humidity
70%
Altimeter
30.13" Hg
Pressure
1020.32 hPa
Previous

35 mins ago

KHHG 222235Z AUTO 00000KT 10SM CLR 01/M04 A3012 RMK AO2 T00111042
Observed
Nov-22 @ 22:35 UTC
Visibility
10 SM
Flight Rules
VFR
Cloud Levels
  • Clear skies
Temperature
C / 34°F
Dewpoint
-4°C / 25°F
Humidity
70%
Altimeter
30.12" Hg
Pressure
1020.02 hPa
Previous

55 mins ago

KHHG 222215Z AUTO 00000KT 10SM CLR 02/M04 A3012 RMK AO2 T00161043
Observed
Nov-22 @ 22:15 UTC
Visibility
10 SM
Flight Rules
VFR
Cloud Levels
  • Clear skies
Temperature
C / 36°F
Dewpoint
-4°C / 25°F
Humidity
65%
Altimeter
30.12" Hg
Pressure
1020.02 hPa